createdAt,value
2022-11-28T00:02:00.948Z,4.33
2022-11-28T00:04:28.961Z,4.28
2022-11-28T00:06:57.135Z,4.29
2022-11-28T00:09:25.556Z,4.31
2022-11-28T00:11:53.550Z,4.39
2022-11-28T00:14:21.545Z,4.41
2022-11-28T00:16:50.893Z,4.42
2022-11-28T00:19:18.918Z,4.41
2022-11-28T00:21:46.945Z,4.38
2022-11-28T00:24:14.985Z,4.43
2022-11-28T00:26:44.068Z,4.45
2022-11-28T00:29:12.650Z,4.41
2022-11-28T00:31:44.052Z,4.41
2022-11-28T00:34:15.368Z,4.45
2022-11-28T00:36:45.112Z,4.42
2022-11-28T00:39:13.479Z,4.39
2022-11-28T00:41:41.471Z,4.41
2022-11-28T00:44:09.817Z,4.41
2022-11-28T00:46:37.919Z,4.39
2022-11-28T00:49:05.885Z,4.42
2022-11-28T00:51:36.123Z,4.43
2022-11-28T00:54:12.498Z,4.46
2022-11-28T00:56:41.658Z,4.42
2022-11-28T00:59:09.904Z,4.45
2022-11-28T01:01:39.627Z,4.46
2022-11-28T01:04:09.999Z,4.45
2022-11-28T01:06:41.741Z,4.43
2022-11-28T01:09:12.466Z,4.48
2022-11-28T01:11:41.664Z,4.45
2022-11-28T01:14:10.839Z,4.45
2022-11-28T01:16:39.110Z,4.49
2022-11-28T01:19:08.291Z,4.42
2022-11-28T01:21:36.701Z,4.41
2022-11-28T01:24:06.983Z,4.38
2022-11-28T01:26:35.256Z,4.41
2022-11-28T01:29:03.239Z,4.42
2022-11-28T01:31:31.595Z,4.39
2022-11-28T01:34:06.141Z,4.41
2022-11-28T01:36:35.157Z,4.42
2022-11-28T01:39:03.129Z,4.43
2022-11-28T01:41:32.562Z,4.41
2022-11-28T01:44:03.441Z,4.45
2022-11-28T01:46:32.617Z,4.39
2022-11-28T01:49:04.997Z,4.41
2022-11-28T01:51:33.700Z,4.42
2022-11-28T01:54:02.413Z,4.41
2022-11-28T01:56:39.733Z,4.43
2022-11-28T01:59:11.224Z,4.43
2022-11-28T02:01:40.305Z,4.42
2022-11-28T02:04:08.443Z,4.42
2022-11-28T02:06:37.187Z,4.38
2022-11-28T02:09:07.838Z,4.39
2022-11-28T02:12:07.777Z,4.38
2022-11-28T02:15:01.048Z,4.41
2022-11-28T02:17:47.286Z,4.43
2022-11-28T02:20:53.041Z,4.41
2022-11-28T02:23:32.790Z,4.43
2022-11-28T02:26:32.810Z,4.41
2022-11-28T02:29:30.328Z,4.35
2022-11-28T02:32:14.983Z,4.31
2022-11-28T02:34:52.298Z,4.33
2022-11-28T02:37:31.999Z,4.31
2022-11-28T02:40:08.793Z,4.33
2022-11-28T02:42:48.218Z,4.33
2022-11-28T02:45:27.311Z,4.32
2022-11-28T02:48:02.911Z,4.32
2022-11-28T02:50:36.806Z,4.32
2022-11-28T02:53:08.004Z,4.28
2022-11-28T02:55:40.204Z,4.32
2022-11-28T02:58:08.610Z,4.31
2022-11-28T03:00:39.646Z,4.32
2022-11-28T03:03:36.220Z,4.32
2022-11-28T03:06:12.743Z,4.38
2022-11-28T03:08:55.947Z,4.35
2022-11-28T03:11:35.980Z,4.31
2022-11-28T03:14:13.582Z,4.26
2022-11-28T03:16:47.732Z,4.14
2022-11-28T03:19:21.756Z,4.11
2022-11-28T03:21:58.949Z,4.02
2022-11-28T03:24:34.349Z,4.02
2022-11-28T03:27:08.913Z,3.87
2022-11-28T03:29:42.176Z,3.76
2022-11-28T03:32:14.710Z,3.60
2022-11-28T03:34:48.779Z,3.50
2022-11-28T03:37:20.743Z,3.44
2022-11-28T03:39:52.792Z,3.38
2022-11-28T03:42:23.493Z,3.35
2022-11-28T03:44:57.169Z,3.29
2022-11-28T03:47:27.785Z,3.23
2022-11-28T03:49:58.872Z,3.13
2022-11-28T03:52:37.836Z,3.15
2022-11-28T03:55:12.091Z,3.05
2022-11-28T03:57:53.309Z,3.05
2022-11-28T04:00:21.508Z,3.05
2022-11-28T04:02:58.503Z,3.08
2022-11-28T04:05:33.868Z,3.09
2022-11-28T04:08:13.271Z,3.00
2022-11-28T04:10:44.839Z,2.98
2022-11-28T04:13:20.162Z,2.98
2022-11-28T04:15:53.839Z,3.00
2022-11-28T04:18:28.273Z,3.04
2022-11-28T04:21:04.882Z,3.00
2022-11-28T04:23:35.082Z,2.98
2022-11-28T04:26:08.581Z,2.92
2022-11-28T04:28:38.656Z,2.95
2022-11-28T04:31:08.375Z,2.95
2022-11-28T04:33:41.331Z,2.94
2022-11-28T04:36:12.560Z,2.88
2022-11-28T04:38:43.600Z,2.85
2022-11-28T04:41:15.998Z,2.98
2022-11-28T04:43:50.353Z,2.95
2022-11-28T04:46:22.369Z,2.77
2022-11-28T04:48:50.441Z,2.71
2022-11-28T04:51:23.752Z,2.88
2022-11-28T04:53:58.012Z,2.90
2022-11-28T04:56:32.647Z,2.94
2022-11-28T04:59:02.193Z,2.90
2022-11-28T05:01:32.632Z,2.83
2022-11-28T05:04:01.030Z,2.84
2022-11-28T05:06:33.026Z,2.91
2022-11-28T05:09:01.425Z,3.01
2022-11-28T05:11:30.037Z,3.16
2022-11-28T05:13:58.121Z,3.23
2022-11-28T05:16:26.254Z,3.30
2022-11-28T05:18:54.307Z,3.39
2022-11-28T05:21:22.338Z,3.43
2022-11-28T05:23:51.698Z,3.46
2022-11-28T05:26:21.915Z,3.53
2022-11-28T05:28:51.316Z,3.52
2022-11-28T05:31:20.387Z,3.47
2022-11-28T05:33:48.861Z,3.43
2022-11-28T05:36:18.520Z,3.44
2022-11-28T05:38:46.862Z,3.50
2022-11-28T05:41:21.458Z,3.55
2022-11-28T05:43:49.644Z,3.55
2022-11-28T05:46:18.242Z,3.53
2022-11-28T05:48:46.333Z,3.52
2022-11-28T05:51:15.043Z,3.50
2022-11-28T05:53:43.340Z,3.47
2022-11-28T05:56:12.571Z,3.50
2022-11-28T05:58:42.599Z,3.53
2022-11-28T06:01:12.716Z,3.56
2022-11-28T06:03:41.137Z,3.64
2022-11-28T06:06:13.989Z,3.59
2022-11-28T06:08:42.805Z,3.53
2022-11-28T06:11:10.971Z,3.49
2022-11-28T06:13:39.539Z,3.44
2022-11-28T06:16:11.139Z,3.46
2022-11-28T06:18:40.032Z,3.42
2022-11-28T06:21:14.510Z,3.46
2022-11-28T06:23:43.433Z,3.49
2022-11-28T06:26:13.925Z,3.43
2022-11-28T06:28:42.516Z,3.52
2022-11-28T06:31:13.414Z,3.46
2022-11-28T06:33:42.096Z,3.40
2022-11-28T06:36:11.621Z,3.38
2022-11-28T06:38:39.621Z,3.36
2022-11-28T06:41:10.101Z,3.35
2022-11-28T06:43:38.511Z,3.32
2022-11-28T06:46:06.981Z,3.33
2022-11-28T06:48:36.373Z,3.38
2022-11-28T06:51:05.207Z,3.39
2022-11-28T06:53:33.606Z,3.42
2022-11-28T06:56:12.303Z,3.47
2022-11-28T06:58:40.282Z,3.52
2022-11-28T07:01:09.782Z,3.57
2022-11-28T07:03:45.670Z,3.55
2022-11-28T07:06:15.687Z,3.70
2022-11-28T07:08:44.232Z,3.69
2022-11-28T07:11:13.826Z,3.70
2022-11-28T07:13:42.444Z,3.76
2022-11-28T07:16:16.182Z,3.78
2022-11-28T07:18:46.057Z,3.84
2022-11-28T07:21:15.137Z,3.88
2022-11-28T07:23:43.672Z,3.93
2022-11-28T07:26:13.958Z,3.86
2022-11-28T07:28:42.539Z,3.86
2022-11-28T07:31:12.926Z,3.84
2022-11-28T07:33:42.325Z,3.86
2022-11-28T07:36:15.730Z,3.88
2022-11-28T07:38:43.928Z,3.86
2022-11-28T07:41:13.972Z,3.94
2022-11-28T07:43:43.195Z,3.95
2022-11-28T07:46:13.312Z,3.91
2022-11-28T07:48:41.410Z,3.94
2022-11-28T07:51:11.015Z,3.87
2022-11-28T07:53:41.277Z,3.90
2022-11-28T07:56:13.621Z,3.98
2022-11-28T07:58:42.620Z,4.01
2022-11-28T08:01:11.670Z,4.06
2022-11-28T08:03:39.793Z,4.05
2022-11-28T08:06:08.758Z,4.02
2022-11-28T08:08:37.253Z,4.06
2022-11-28T08:11:08.542Z,4.14
2022-11-28T08:13:39.472Z,4.18
2022-11-28T08:16:09.903Z,4.12
2022-11-28T08:18:38.295Z,4.14
2022-11-28T08:21:09.988Z,4.22
2022-11-28T08:23:38.696Z,4.24
2022-11-28T08:26:11.635Z,4.26
2022-11-28T08:28:39.739Z,4.25
2022-11-28T08:31:11.950Z,4.28
2022-11-28T08:33:40.145Z,4.21
2022-11-28T08:36:09.425Z,4.21
2022-11-28T08:38:38.140Z,4.21
2022-11-28T08:41:09.146Z,4.19
2022-11-28T08:43:38.063Z,4.19
2022-11-28T08:46:07.129Z,4.14
2022-11-28T08:48:36.297Z,4.14
2022-11-28T08:51:04.563Z,4.11
2022-11-28T08:53:32.945Z,4.08
2022-11-28T08:56:01.317Z,4.09
2022-11-28T08:58:30.784Z,4.06
2022-11-28T09:01:00.825Z,4.02
2022-11-28T09:03:28.881Z,4.06
2022-11-28T09:06:02.377Z,4.09
2022-11-28T09:08:32.573Z,4.06
2022-11-28T09:11:00.761Z,4.04
2022-11-28T09:13:30.146Z,4.01
2022-11-28T09:15:58.144Z,3.99
2022-11-28T09:18:27.155Z,3.94
2022-11-28T09:20:59.555Z,3.93
2022-11-28T09:23:27.910Z,3.93
2022-11-28T09:25:56.364Z,3.88
2022-11-28T09:28:24.769Z,3.93
2022-11-28T09:31:02.615Z,3.95
2022-11-28T09:33:30.843Z,3.97
2022-11-28T09:35:59.329Z,3.98
2022-11-28T09:38:27.543Z,3.95
2022-11-28T09:40:55.754Z,3.97
2022-11-28T09:43:30.872Z,4.01
2022-11-28T09:46:02.400Z,4.02
2022-11-28T09:48:36.263Z,4.04
2022-11-28T09:51:13.546Z,4.05
2022-11-28T09:53:48.684Z,3.99
2022-11-28T09:56:20.138Z,4.01
2022-11-28T09:58:52.676Z,4.04
2022-11-28T10:01:30.251Z,4.01
2022-11-28T10:04:04.123Z,3.99
2022-11-28T10:06:41.684Z,4.01
2022-11-28T10:09:23.786Z,4.05
2022-11-28T10:12:06.859Z,4.08
2022-11-28T10:14:55.553Z,3.98
2022-11-28T10:17:35.609Z,3.94
2022-11-28T10:20:07.136Z,3.94
2022-11-28T10:22:42.608Z,4.01
2022-11-28T10:25:17.876Z,3.99
2022-11-28T10:27:47.273Z,4.01
2022-11-28T10:30:21.817Z,3.97
2022-11-28T10:32:58.811Z,3.93
2022-11-28T10:35:35.418Z,3.97
2022-11-28T10:38:03.903Z,4.04
2022-11-28T10:40:41.040Z,3.95
2022-11-28T10:43:18.761Z,4.04
2022-11-28T10:45:55.595Z,4.09
2022-11-28T10:48:39.960Z,4.14
2022-11-28T10:51:22.569Z,4.12
2022-11-28T10:54:01.146Z,4.12
2022-11-28T10:56:38.658Z,4.18
2022-11-28T10:59:21.345Z,4.12
2022-11-28T11:01:51.061Z,4.15
2022-11-28T11:04:22.075Z,4.14
2022-11-28T11:07:15.049Z,4.24
2022-11-28T11:09:46.617Z,4.06
2022-11-28T11:12:21.821Z,4.05
2022-11-28T11:14:49.875Z,3.95
2022-11-28T11:17:36.176Z,3.98
2022-11-28T11:20:26.432Z,3.97
2022-11-28T11:22:56.559Z,3.94
2022-11-28T11:25:26.085Z,3.93
2022-11-28T11:27:57.389Z,3.93
2022-11-28T11:30:28.598Z,3.90
2022-11-28T11:32:58.590Z,4.01
2022-11-28T11:35:31.242Z,3.95
2022-11-28T11:38:19.270Z,3.88
2022-11-28T11:40:47.871Z,3.88
2022-11-28T11:43:37.179Z,3.94
2022-11-28T11:46:07.640Z,3.93
2022-11-28T11:48:39.675Z,3.94
2022-11-28T11:51:24.099Z,3.99
2022-11-28T11:54:05.581Z,3.97
2022-11-28T11:56:38.586Z,3.99
2022-11-28T11:59:16.071Z,3.94
2022-11-28T12:01:47.083Z,3.94
2022-11-28T12:04:43.595Z,3.93
2022-11-28T12:07:27.089Z,4.04
2022-11-28T12:10:03.037Z,4.04
2022-11-28T12:12:36.699Z,4.06
2022-11-28T12:15:05.257Z,4.08
2022-11-28T12:17:49.110Z,4.04
2022-11-28T12:20:33.920Z,4.05
2022-11-28T12:23:15.768Z,4.09
2022-11-28T12:25:54.160Z,4.14
2022-11-28T12:28:34.173Z,4.16
2022-11-28T12:31:16.429Z,4.24
2022-11-28T12:33:57.602Z,4.25
2022-11-28T12:36:30.596Z,4.22
2022-11-28T12:39:17.631Z,4.25
2022-11-28T12:42:09.410Z,4.22
2022-11-28T12:44:57.520Z,4.18
2022-11-28T12:47:36.102Z,4.16
2022-11-28T12:50:15.836Z,4.22
2022-11-28T12:52:49.703Z,4.25
2022-11-28T12:55:33.449Z,4.24
2022-11-28T12:58:10.885Z,4.22
2022-11-28T13:00:51.810Z,4.29
2022-11-28T13:03:35.502Z,4.33
2022-11-28T13:06:14.844Z,4.35
2022-11-28T13:09:08.725Z,4.31
2022-11-28T13:11:48.992Z,4.25
2022-11-28T13:14:29.529Z,4.25
2022-11-28T13:17:04.212Z,4.18
2022-11-28T13:19:42.072Z,4.18
2022-11-28T13:22:14.861Z,4.16
2022-11-28T13:24:50.807Z,4.15
2022-11-28T13:27:34.656Z,4.15
2022-11-28T13:30:14.411Z,4.14
2022-11-28T13:32:48.367Z,4.14
2022-11-28T13:35:18.734Z,4.12
2022-11-28T13:40:47.172Z,4.08
2022-11-28T13:43:23.542Z,4.06
2022-11-28T13:45:52.538Z,4.04
2022-11-28T13:49:20.209Z,4.02
2022-11-28T13:51:48.998Z,4.01
2022-11-28T13:54:45.653Z,3.99
2022-11-28T13:57:32.647Z,3.99
2022-11-28T14:00:10.517Z,4.01
2022-11-28T14:02:46.596Z,4.04
2022-11-28T14:05:34.170Z,3.99
2022-11-28T14:08:04.260Z,3.99
2022-11-28T14:10:50.732Z,3.97
2022-11-28T14:13:24.908Z,3.98
2022-11-28T14:16:07.841Z,3.99
2022-11-28T14:18:58.805Z,4.01
2022-11-28T14:21:40.347Z,3.98
2022-11-28T14:24:17.859Z,3.98
2022-11-28T14:26:46.871Z,3.93
2022-11-28T14:29:24.660Z,3.91
2022-11-28T14:32:28.037Z,3.90
2022-11-28T14:34:47.675Z,3.91
2022-11-28T14:37:54.308Z,3.87
2022-11-28T14:41:03.910Z,3.77
2022-11-28T14:43:33.910Z,3.76
2022-11-28T14:46:26.481Z,3.73
2022-11-28T14:49:23.894Z,3.76
2022-11-28T14:55:19.641Z,3.76
2022-11-28T14:57:59.280Z,3.70
2022-11-28T15:00:29.956Z,3.70
2022-11-28T15:03:23.769Z,3.76
2022-11-28T15:05:55.342Z,3.74
2022-11-28T15:08:50.375Z,3.67
2022-11-28T15:11:39.130Z,3.59
2022-11-28T15:14:16.270Z,3.50
2022-11-28T15:16:51.020Z,3.42
2022-11-28T15:19:31.793Z,3.33
2022-11-28T15:22:03.258Z,3.28
2022-11-28T15:24:35.908Z,3.28
2022-11-28T15:27:25.511Z,3.21
2022-11-28T15:29:57.119Z,3.30
2022-11-28T15:32:26.050Z,3.35
2022-11-28T15:34:59.660Z,3.32
2022-11-28T15:37:32.757Z,3.28
2022-11-28T15:40:04.373Z,3.18
2022-11-28T15:42:34.284Z,3.23
2022-11-28T15:45:09.620Z,3.38
2022-11-28T15:47:41.079Z,3.36
2022-11-28T15:50:19.454Z,3.33
2022-11-28T15:52:58.623Z,3.35
2022-11-28T15:55:29.929Z,3.38
2022-11-28T15:58:13.554Z,3.39
2022-11-28T16:00:45.186Z,3.38
2022-11-28T16:03:16.465Z,3.44
2022-11-28T16:05:45.169Z,3.49
2022-11-28T16:08:27.108Z,3.52
2022-11-28T16:10:56.594Z,3.56
2022-11-28T16:13:25.060Z,3.53
2022-11-28T16:15:56.161Z,3.53
2022-11-28T16:18:26.198Z,3.50
2022-11-28T16:20:55.514Z,3.39
2022-11-28T16:23:31.388Z,3.35
2022-11-28T16:26:00.922Z,3.33
2022-11-28T16:28:33.893Z,3.30
2022-11-28T16:31:02.083Z,3.36
2022-11-28T16:33:41.684Z,3.30
2022-11-28T16:36:20.376Z,3.30
2022-11-28T16:38:52.065Z,3.30
2022-11-28T16:41:23.514Z,3.29
2022-11-28T16:43:56.474Z,3.28
2022-11-28T16:46:27.245Z,3.28
2022-11-28T16:48:57.804Z,3.25
2022-11-28T16:51:34.707Z,3.25
2022-11-28T16:54:31.859Z,3.23
2022-11-28T16:57:11.606Z,3.28
2022-11-28T16:59:39.829Z,3.23
2022-11-28T17:02:16.503Z,3.22
2022-11-28T17:04:45.278Z,3.21
2022-11-28T17:07:15.350Z,3.16
2022-11-28T17:09:46.699Z,3.16
2022-11-28T17:12:21.467Z,3.16
2022-11-28T17:14:49.541Z,3.13
2022-11-28T17:17:20.294Z,3.15
2022-11-28T17:19:48.711Z,3.09
2022-11-28T17:22:20.010Z,3.07
2022-11-28T17:24:51.683Z,2.98
2022-11-28T17:27:20.160Z,2.87
2022-11-28T17:29:48.293Z,2.77
2022-11-28T17:32:16.854Z,2.70
2022-11-28T17:34:46.604Z,2.64
2022-11-28T17:37:15.485Z,2.52
2022-11-28T17:40:03.693Z,2.49
2022-11-28T17:42:33.879Z,2.47
2022-11-28T17:45:02.078Z,2.52
2022-11-28T17:47:30.289Z,2.42
2022-11-28T17:49:58.910Z,2.46
2022-11-28T17:52:30.373Z,2.53
2022-11-28T17:55:07.023Z,2.53
2022-11-28T17:57:37.286Z,2.54
2022-11-28T18:00:07.723Z,2.53
2022-11-28T18:02:41.988Z,2.56
2022-11-28T18:05:11.731Z,2.46
2022-11-28T18:07:41.492Z,2.50
2022-11-28T18:10:12.835Z,2.56
2022-11-28T18:12:42.706Z,2.54
2022-11-28T18:15:11.541Z,2.57
2022-11-28T18:17:39.906Z,2.57
2022-11-28T18:20:11.385Z,2.60
2022-11-28T18:22:39.506Z,2.53
2022-11-28T18:25:09.479Z,2.53
2022-11-28T18:27:37.612Z,2.47
2022-11-28T18:30:08.972Z,2.49
2022-11-28T18:32:37.310Z,2.52
2022-11-28T18:35:06.381Z,2.53
2022-11-28T18:37:34.576Z,2.54
2022-11-28T18:40:09.119Z,2.57
2022-11-28T18:42:38.380Z,2.53
2022-11-28T18:45:09.366Z,2.50
2022-11-28T18:47:37.919Z,2.52
2022-11-28T18:50:08.149Z,2.50
2022-11-28T18:52:37.788Z,2.39
2022-11-28T18:55:06.410Z,2.40
2022-11-28T18:57:35.166Z,2.40
2022-11-28T19:00:05.501Z,2.47
2022-11-28T19:02:36.029Z,2.50
2022-11-28T19:05:04.956Z,2.42
2022-11-28T19:07:33.310Z,2.43
2022-11-28T19:10:01.391Z,2.40
2022-11-28T19:12:29.565Z,2.33
2022-11-28T19:15:02.099Z,2.36
2022-11-28T19:17:30.867Z,2.40
2022-11-28T19:20:00.472Z,2.33
2022-11-28T19:22:29.734Z,2.30
2022-11-28T19:24:59.744Z,2.19
2022-11-28T19:27:27.872Z,2.15
2022-11-28T19:29:56.080Z,2.18
2022-11-28T19:32:25.302Z,2.26
2022-11-28T19:34:58.075Z,2.36
2022-11-28T19:37:27.564Z,2.30
2022-11-28T19:40:01.053Z,2.33
2022-11-28T19:42:30.545Z,2.32
2022-11-28T19:44:59.174Z,2.35
2022-11-28T19:47:27.267Z,2.33
2022-11-28T19:49:55.297Z,2.40
2022-11-28T19:52:23.625Z,2.54
2022-11-28T19:54:53.140Z,2.53
2022-11-28T19:57:22.037Z,2.54
2022-11-28T19:59:50.216Z,2.60
2022-11-28T20:02:21.669Z,2.61
2022-11-28T20:04:51.284Z,2.54
2022-11-28T20:07:20.471Z,2.58
2022-11-28T20:09:49.580Z,2.61
2022-11-28T20:12:20.107Z,2.60
2022-11-28T20:14:48.454Z,2.65
2022-11-28T20:17:17.311Z,2.67
2022-11-28T20:19:48.566Z,2.68
2022-11-28T20:22:17.886Z,2.68
2022-11-28T20:24:47.158Z,2.65
2022-11-28T20:27:15.445Z,2.68
2022-11-28T20:29:45.634Z,2.74
2022-11-28T20:32:14.274Z,2.84
2022-11-28T20:34:45.376Z,2.83
2022-11-28T20:37:15.564Z,2.80
2022-11-28T20:39:44.347Z,2.79
2022-11-28T20:42:12.690Z,2.74
2022-11-28T20:44:41.156Z,2.71
2022-11-28T20:47:11.741Z,2.79
2022-11-28T20:49:39.784Z,2.77
2022-11-28T20:52:08.191Z,2.74
2022-11-28T20:54:37.372Z,2.74
2022-11-28T20:57:20.978Z,2.74
2022-11-28T20:59:52.522Z,2.65
2022-11-28T21:02:29.888Z,2.73
2022-11-28T21:04:59.200Z,2.80
2022-11-28T21:07:27.469Z,2.74
2022-11-28T21:09:59.899Z,2.73
2022-11-28T21:12:29.077Z,2.70
2022-11-28T21:14:57.512Z,2.70
2022-11-28T21:17:25.575Z,2.67
2022-11-28T21:19:56.014Z,2.63
2022-11-28T21:22:24.054Z,2.60
2022-11-28T21:24:52.091Z,2.61
2022-11-28T21:27:22.348Z,2.58
2022-11-28T21:29:52.262Z,2.65
2022-11-28T21:32:20.664Z,2.64
2022-11-28T21:34:48.773Z,2.63
2022-11-28T21:37:18.705Z,2.60
2022-11-28T21:39:47.020Z,2.60
2022-11-28T21:42:20.289Z,2.58
2022-11-28T21:44:50.889Z,2.61
2022-11-28T21:47:19.071Z,2.60
2022-11-28T21:49:47.374Z,2.61
2022-11-28T21:52:23.563Z,2.63
2022-11-28T21:54:53.886Z,2.63
2022-11-28T21:57:23.486Z,2.63
2022-11-28T21:59:51.585Z,2.64
2022-11-28T22:02:20.318Z,2.70
2022-11-28T22:04:48.661Z,2.68
2022-11-28T22:07:18.439Z,2.71
2022-11-28T22:09:46.547Z,2.73
2022-11-28T22:12:14.593Z,2.79
2022-11-28T22:14:42.715Z,2.71
2022-11-28T22:17:10.887Z,2.71
2022-11-28T22:19:40.021Z,2.65
2022-11-28T22:22:08.116Z,2.67
2022-11-28T22:24:37.738Z,2.63
2022-11-28T22:27:06.698Z,2.61
2022-11-28T22:29:34.847Z,2.68
2022-11-28T22:32:03.863Z,2.68
2022-11-28T22:34:35.771Z,2.63
2022-11-28T22:37:07.794Z,2.67
2022-11-28T22:39:38.884Z,2.70
2022-11-28T22:42:07.539Z,2.68
2022-11-28T22:44:35.762Z,2.70
2022-11-28T22:47:03.879Z,2.70
2022-11-28T22:49:32.039Z,2.71
2022-11-28T22:52:00.280Z,2.68
2022-11-28T22:54:28.624Z,2.74
2022-11-28T22:56:58.333Z,2.73
2022-11-28T22:59:27.188Z,2.65
2022-11-28T23:01:55.423Z,2.70
2022-11-28T23:04:23.622Z,2.68
2022-11-28T23:06:52.176Z,2.64
2022-11-28T23:09:20.987Z,2.60
2022-11-28T23:11:49.824Z,2.58
2022-11-28T23:14:20.054Z,2.65
2022-11-28T23:16:51.340Z,2.57
2022-11-28T23:19:20.272Z,2.52
2022-11-28T23:21:50.503Z,2.57
2022-11-28T23:24:22.613Z,2.61
2022-11-28T23:26:52.594Z,2.54
2022-11-28T23:29:22.184Z,2.54
2022-11-28T23:31:52.636Z,2.46
2022-11-28T23:34:20.846Z,2.46
2022-11-28T23:36:49.519Z,2.43
2022-11-28T23:39:20.276Z,2.39
2022-11-28T23:41:49.096Z,2.53
2022-11-28T23:44:18.855Z,2.54
2022-11-28T23:46:48.864Z,2.54
2022-11-28T23:49:16.915Z,2.47
2022-11-28T23:51:44.961Z,2.44
2022-11-28T23:54:13.317Z,2.35
2022-11-28T23:56:42.711Z,2.29
2022-11-28T23:59:12.269Z,2.21
